Time;durP1;ratioP1;P1;durP2;ratioP2;P2;SDS_P1;SDS_P2;PMS_P1;PMS_P2;Temp;Humidity;BMP_temperature;BMP_pressure;BME280_temperature;BME280_humidity;BME280_pressure;Samples;Min_cycle;Max_cycle;Signal;HPM_P1;HPM_P2
2023/01/21 00:02:11;;;;;;;52.00;24.33;;;2.80;99.90;;;;;;5117193;28;20035;-71
2023/01/21 00:04:37;;;;;;;48.13;23.40;;;2.90;99.90;;;;;;5117367;28;20031;-71
2023/01/21 00:07:06;;;;;;;51.00;23.55;;;2.90;99.90;;;;;;5117406;28;20324;-71
2023/01/21 00:09:33;;;;;;;52.58;24.48;;;2.90;99.90;;;;;;5117382;28;20127;-71
2023/01/21 00:12:01;;;;;;;49.03;22.77;;;2.90;99.90;;;;;;5117420;28;20401;-71
2023/01/21 00:14:30;;;;;;;53.45;24.95;;;2.90;99.90;;;;;;5117305;28;20043;-71
2023/01/21 00:16:57;;;;;;;51.33;23.90;;;2.90;99.90;;;;;;5117278;28;20050;-71
2023/01/21 00:19:27;;;;;;;46.50;21.63;;;2.80;99.90;;;;;;5117011;28;20096;-72
2023/01/21 00:21:53;;;;;;;50.67;24.33;;;2.80;99.90;;;;;;5117024;28;20047;-71
2023/01/21 00:24:21;;;;;;;48.35;22.05;;;2.70;99.90;;;;;;5116871;28;20084;-71
2023/01/21 00:26:47;;;;;;;44.33;21.92;;;2.60;99.90;;;;;;5116979;28;20428;-71
2023/01/21 00:29:13;;;;;;;50.97;22.80;;;2.60;99.90;;;;;;5117196;28;20092;-71
2023/01/21 00:31:38;;;;;;;49.80;23.08;;;2.60;99.90;;;;;;5116813;28;20444;-71
2023/01/21 00:34:04;;;;;;;52.00;22.52;;;2.60;99.90;;;;;;5116795;28;20044;-71
2023/01/21 00:36:30;;;;;;;51.60;23.58;;;2.60;99.90;;;;;;5117131;28;20043;-71
2023/01/21 00:38:56;;;;;;;43.00;22.88;;;2.60;99.90;;;;;;5117130;28;20032;-71
2023/01/21 00:41:25;;;;;;;48.08;20.92;;;2.50;99.90;;;;;;5116768;28;20069;-71
2023/01/21 00:43:51;;;;;;;51.80;22.42;;;2.50;99.90;;;;;;5117046;28;20032;-71
2023/01/21 00:46:17;;;;;;;51.38;22.75;;;2.50;99.90;;;;;;5115950;28;20032;-71
2023/01/21 00:48:43;;;;;;;47.25;22.13;;;2.50;99.90;;;;;;5116995;28;20039;-71
2023/01/21 00:51:09;;;;;;;44.80;21.15;;;2.40;99.90;;;;;;5116375;28;20062;-71
2023/01/21 00:53:37;;;;;;;48.60;21.88;;;2.40;99.90;;;;;;5116960;28;20116;-71
2023/01/21 00:56:08;;;;;;;47.53;22.13;;;2.40;99.90;;;;;;5116938;28;20105;-71
2023/01/21 00:58:35;;;;;;;47.50;22.48;;;2.40;99.90;;;;;;5118875;28;20343;-71
2023/01/21 01:01:08;;;;;;;47.90;20.95;;;2.30;99.90;;;;;;5120903;28;20040;-71
2023/01/21 01:03:35;;;;;;;48.67;21.48;;;2.30;99.90;;;;;;5120528;27;20448;-71
2023/01/21 01:06:08;;;;;;;52.70;23.00;;;2.30;99.90;;;;;;5120719;28;20040;-71
2023/01/21 01:08:34;;;;;;;53.55;23.35;;;2.30;99.90;;;;;;5120774;28;20294;-71
2023/01/21 01:11:00;;;;;;;46.15;21.92;;;2.40;99.90;;;;;;5120743;28;20038;-71
2023/01/21 01:13:26;;;;;;;47.80;22.42;;;2.40;99.90;;;;;;5120811;28;20325;-71
2023/01/21 01:15:54;;;;;;;48.08;22.38;;;2.30;99.90;;;;;;5120246;28;20444;-71
2023/01/21 01:18:21;;;;;;;48.90;23.00;;;2.30;99.90;;;;;;5120839;28;20039;-71
2023/01/21 01:20:47;;;;;;;48.85;22.40;;;2.30;99.90;;;;;;5120147;28;20038;-71
2023/01/21 01:23:13;;;;;;;48.28;21.50;;;2.20;99.90;;;;;;5119178;28;20344;-71
2023/01/21 01:25:39;;;;;;;45.70;21.25;;;2.20;99.90;;;;;;5119840;28;20043;-70
2023/01/21 01:28:05;;;;;;;47.70;22.75;;;2.10;99.90;;;;;;5119957;28;20055;-71
2023/01/21 01:30:31;;;;;;;47.63;21.27;;;2.00;99.90;;;;;;5120327;28;20043;-71
2023/01/21 01:32:56;;;;;;;48.17;21.35;;;2.00;99.90;;;;;;5119106;28;20348;-71
2023/01/21 01:35:22;;;;;;;58.72;24.27;;;2.00;99.90;;;;;;5119017;28;20340;-71
2023/01/21 01:37:48;;;;;;;52.30;23.65;;;2.10;99.90;;;;;;5119923;28;20051;-71
2023/01/21 01:40:13;;;;;;;47.25;21.73;;;2.10;99.90;;;;;;5120116;28;20035;-71
2023/01/21 01:42:39;;;;;;;49.22;22.55;;;2.20;99.90;;;;;;5120073;28;20044;-71
2023/01/21 01:45:17;;;;;;;48.20;22.27;;;2.10;99.90;;;;;;5119665;28;20114;-71
2023/01/21 01:47:56;;;;;;;51.90;23.23;;;2.10;99.90;;;;;;5120032;28;20371;-71
2023/01/21 01:50:31;;;;;;;52.30;23.35;;;2.00;99.90;;;;;;5118367;28;20443;-71
2023/01/21 01:52:59;;;;;;;51.92;23.00;;;2.00;99.90;;;;;;5119889;28;20069;-71
2023/01/21 01:55:27;;;;;;;60.00;26.05;;;2.00;99.90;;;;;;5119487;28;20438;-71
2023/01/21 01:57:54;;;;;;;49.28;22.58;;;2.10;99.90;;;;;;5101692;28;20122;-71
2023/01/21 02:00:20;;;;;;;55.38;23.90;;;2.00;99.90;;;;;;5119725;28;20047;-71
2023/01/21 02:03:43;;;;;;;53.40;22.70;;;2.00;99.90;;;;;;5119721;28;20377;-71
2023/01/21 02:05:33;;;;;;;57.53;24.50;;;2.00;99.90;;;;;;5119513;28;20386;-71
2023/01/21 02:08:00;;;;;;;51.72;23.38;;;2.10;99.90;;;;;;5119601;28;20051;-71
2023/01/21 02:10:26;;;;;;;51.85;23.08;;;2.10;99.90;;;;;;5118356;28;20074;-71
2023/01/21 02:12:52;;;;;;;51.45;23.67;;;2.10;99.90;;;;;;5119324;28;20071;-71
2023/01/21 02:15:18;;;;;;;49.85;21.23;;;2.00;99.90;;;;;;5119422;28;20070;-71
2023/01/21 02:17:57;;;;;;;44.35;21.48;;;2.00;99.90;;;;;;5119063;28;20432;-71
2023/01/21 02:20:41;;;;;;;48.60;22.42;;;2.00;99.90;;;;;;5119073;27;20048;-71
2023/01/21 02:23:20;;;;;;;51.80;22.83;;;1.90;99.90;;;;;;5119367;28;20101;-70
2023/01/21 02:26:34;;;;;;;51.35;23.45;;;2.00;99.90;;;;;;5119163;28;20085;-71
2023/01/21 02:29:36;;;;;;;49.97;22.73;;;2.00;99.90;;;;;;5118865;28;20367;-71
2023/01/21 02:32:53;;;;;;;45.80;21.73;;;1.90;99.90;;;;;;5111736;27;20441;-71
2023/01/21 02:35:33;;;;;;;49.25;21.83;;;1.90;99.90;;;;;;5059439;28;20442;-71
2023/01/21 02:38:18;;;;;;;53.00;23.63;;;1.80;99.90;;;;;;5114133;28;20127;-71
2023/01/21 02:41:19;;;;;;;54.38;23.52;;;1.90;99.90;;;;;;5118908;28;20040;-71
2023/01/21 02:44:09;;;;;;;54.83;23.73;;;1.90;99.90;;;;;;5118959;28;20047;-71
2023/01/21 02:46:59;;;;;;;55.58;23.48;;;1.90;99.90;;;;;;5118737;28;20032;-71
2023/01/21 02:49:37;;;;;;;49.85;22.55;;;1.90;99.90;;;;;;5118802;28;20093;-71
2023/01/21 02:52:02;;;;;;;50.45;21.75;;;1.90;99.90;;;;;;5134306;27;20047;-71
2023/01/21 02:54:37;;;;;;;47.88;22.08;;;1.80;99.90;;;;;;5118385;28;20085;-71
2023/01/21 02:57:09;;;;;;;50.10;21.90;;;1.80;99.90;;;;;;5117358;28;20052;-71
2023/01/21 02:59:36;;;;;;;47.33;20.35;;;1.60;99.90;;;;;;5118264;28;20451;-70
2023/01/21 03:02:35;;;;;;;46.42;20.95;;;1.60;99.90;;;;;;5118235;28;20042;-71
2023/01/21 03:05:58;;;;;;;56.83;21.25;;;1.60;99.90;;;;;;5118471;28;20035;-71
2023/01/21 03:08:44;;;;;;;47.95;20.48;;;1.60;99.90;;;;;;5075536;28;20048;-71
2023/01/21 03:11:18;;;;;;;53.83;22.25;;;1.70;99.90;;;;;;5075612;28;20029;-71
2023/01/21 03:17:05;;;;;;;47.97;20.83;;;1.70;99.90;;;;;;5119099;28;20044;-71
2023/01/21 03:19:37;;;;;;;48.15;21.08;;;1.60;99.90;;;;;;5118201;28;20088;-71
2023/01/21 03:22:08;;;;;;;49.53;21.05;;;1.60;99.90;;;;;;5117334;28;20054;-70
2023/01/21 03:24:36;;;;;;;49.97;22.17;;;1.50;99.90;;;;;;5118171;28;20069;-71
2023/01/21 03:27:05;;;;;;;49.08;22.15;;;1.50;99.90;;;;;;5117336;28;20051;-74
2023/01/21 03:29:32;;;;;;;50.95;23.40;;;1.50;99.90;;;;;;5116918;28;20039;-70
2023/01/21 03:32:04;;;;;;;48.88;22.33;;;1.60;99.90;;;;;;5117775;28;20039;-70
2023/01/21 03:34:36;;;;;;;49.78;22.92;;;1.50;99.90;;;;;;5117816;28;20106;-70
2023/01/21 03:37:30;;;;;;;62.78;24.65;;;1.60;99.90;;;;;;5117757;28;20040;-70
2023/01/21 03:40:22;;;;;;;54.28;24.35;;;1.70;99.90;;;;;;5099344;28;20050;-70
2023/01/21 03:42:49;;;;;;;56.85;24.80;;;1.80;99.90;;;;;;5117410;28;20046;-70
2023/01/21 03:45:19;;;;;;;54.63;24.17;;;1.80;99.90;;;;;;5117354;28;20412;-71
2023/01/21 03:47:51;;;;;;;50.70;23.35;;;1.90;99.90;;;;;;5117670;28;20039;-71
2023/01/21 03:50:22;;;;;;;51.83;24.55;;;1.90;99.90;;;;;;5117437;28;20039;-71
2023/01/21 03:52:48;;;;;;;59.47;25.80;;;1.90;99.90;;;;;;5117679;28;20043;-71
2023/01/21 03:55:15;;;;;;;61.33;26.08;;;2.00;99.90;;;;;;5117596;27;20043;-71
2023/01/21 03:57:41;;;;;;;59.47;26.80;;;1.90;99.90;;;;;;5117532;28;20035;-71
2023/01/21 04:00:07;;;;;;;54.65;25.58;;;1.90;99.90;;;;;;5116239;28;20043;-71
2023/01/21 04:02:33;;;;;;;53.85;25.48;;;2.00;99.90;;;;;;5117156;28;20046;-71
2023/01/21 04:04:59;;;;;;;54.00;25.83;;;2.00;99.90;;;;;;5117349;28;20040;-71
2023/01/21 04:07:24;;;;;;;58.15;26.15;;;2.20;99.90;;;;;;5117402;28;20058;-71
2023/01/21 04:09:50;;;;;;;56.22;25.52;;;2.10;99.90;;;;;;5117467;28;20035;-71
2023/01/21 04:12:16;;;;;;;63.42;29.02;;;2.00;99.90;;;;;;5117353;28;20035;-71
2023/01/21 04:14:42;;;;;;;62.17;28.55;;;2.10;99.90;;;;;;5117006;28;20090;-71
2023/01/21 04:17:07;;;;;;;64.93;28.35;;;2.00;99.90;;;;;;5117311;28;20035;-71
2023/01/21 04:19:33;;;;;;;79.45;31.75;;;2.10;99.90;;;;;;5117227;28;20035;-71
2023/01/21 04:21:59;;;;;;;80.03;32.00;;;2.20;99.90;;;;;;5116959;28;20329;-71
2023/01/21 04:24:24;;;;;;;59.95;29.77;;;2.30;99.90;;;;;;5116954;28;20049;-71
2023/01/21 04:26:50;;;;;;;76.30;33.05;;;2.10;99.90;;;;;;5116968;28;20093;-69
2023/01/21 04:29:17;;;;;;;58.40;28.88;;;2.20;99.90;;;;;;5117167;28;20104;-70
2023/01/21 04:31:42;;;;;;;74.70;33.03;;;2.20;99.90;;;;;;5117128;28;20336;-70
2023/01/21 04:34:08;;;;;;;57.70;29.48;;;2.20;99.90;;;;;;5120269;28;20092;-71
2023/01/21 04:36:34;;;;;;;60.00;31.30;;;2.30;99.90;;;;;;5121348;28;20043;-71
2023/01/21 04:39:00;;;;;;;62.55;29.17;;;2.30;99.90;;;;;;5121277;28;20115;-71
2023/01/21 04:41:25;;;;;;;53.22;26.80;;;2.10;99.90;;;;;;5121280;28;20043;-71
2023/01/21 04:43:51;;;;;;;65.43;29.58;;;2.20;99.90;;;;;;5120882;28;20122;-71
2023/01/21 04:46:17;;;;;;;64.57;29.10;;;2.30;99.90;;;;;;5121093;28;20115;-70
2023/01/21 04:48:42;;;;;;;57.50;27.30;;;2.30;99.90;;;;;;5121100;28;20417;-70
2023/01/21 04:51:08;;;;;;;57.25;26.85;;;2.40;99.90;;;;;;5120753;28;20062;-71
2023/01/21 04:53:34;;;;;;;59.70;28.98;;;2.40;99.90;;;;;;5121007;28;20044;-71
2023/01/21 04:55:59;;;;;;;58.15;27.13;;;2.40;99.90;;;;;;5119744;28;20044;-71
2023/01/21 04:58:26;;;;;;;53.20;26.30;;;2.40;99.90;;;;;;5120919;28;20039;-71
2023/01/21 05:00:56;;;;;;;64.72;29.33;;;2.40;99.90;;;;;;5120844;28;20051;-71
2023/01/21 05:03:21;;;;;;;56.70;27.13;;;2.40;99.90;;;;;;5120844;28;20054;-70
2023/01/21 05:05:47;;;;;;;56.42;26.67;;;2.50;99.90;;;;;;5120752;28;20031;-70
2023/01/21 05:08:13;;;;;;;55.58;27.30;;;2.60;99.90;;;;;;5120074;28;20180;-71
2023/01/21 05:10:38;;;;;;;57.90;27.73;;;2.60;99.90;;;;;;5119635;28;20043;-71
2023/01/21 05:13:04;;;;;;;54.78;27.42;;;2.60;99.90;;;;;;5120667;28;20039;-71
2023/01/21 05:15:31;;;;;;;55.92;27.73;;;2.60;99.90;;;;;;5120715;28;20040;-71
2023/01/21 05:17:56;;;;;;;60.78;28.45;;;2.70;99.90;;;;;;5120607;28;20035;-71
2023/01/21 05:20:22;;;;;;;55.15;28.40;;;2.70;99.90;;;;;;5119842;28;20050;-71
2023/01/21 05:22:48;;;;;;;63.33;29.77;;;2.70;99.90;;;;;;5120502;28;20036;-71
2023/01/21 05:25:15;;;;;;;55.92;27.85;;;2.70;99.90;;;;;;5120038;28;20044;-71
2023/01/21 05:27:40;;;;;;;64.40;29.50;;;2.70;99.90;;;;;;5119903;28;20043;-71
2023/01/21 05:30:07;;;;;;;58.75;27.95;;;2.60;99.90;;;;;;5119056;28;20043;-71
2023/01/21 05:32:35;;;;;;;76.65;31.55;;;2.50;99.90;;;;;;5119113;28;20035;-71
2023/01/21 05:35:02;;;;;;;58.50;28.58;;;2.50;99.90;;;;;;5118937;28;20421;-71
2023/01/21 05:37:28;;;;;;;57.13;28.50;;;2.50;99.90;;;;;;5119965;28;20050;-71
2023/01/21 05:39:53;;;;;;;60.17;29.52;;;2.50;99.90;;;;;;5120153;28;20333;-71
2023/01/21 05:42:19;;;;;;;58.55;27.58;;;2.50;99.90;;;;;;5118809;28;20340;-71
2023/01/21 05:44:44;;;;;;;64.18;28.13;;;2.50;99.90;;;;;;5119466;27;20123;-71
2023/01/21 05:47:10;;;;;;;56.92;26.27;;;2.50;99.90;;;;;;5119965;28;20089;-71
2023/01/21 05:49:36;;;;;;;55.33;27.38;;;2.60;99.90;;;;;;5119727;28;20094;-70
2023/01/21 05:52:02;;;;;;;53.88;25.67;;;2.60;99.90;;;;;;5118270;28;20094;-70
2023/01/21 05:54:28;;;;;;;49.55;27.52;;;2.60;99.90;;;;;;5119836;28;20066;-71
2023/01/21 05:56:53;;;;;;;64.80;29.85;;;2.60;99.90;;;;;;5119526;28;20039;-71
2023/01/21 05:59:19;;;;;;;65.97;29.13;;;2.60;99.90;;;;;;5119461;28;20043;-71
2023/01/21 06:01:45;;;;;;;53.15;26.33;;;2.60;99.90;;;;;;5118666;28;20047;-71
2023/01/21 06:04:10;;;;;;;55.45;27.38;;;2.60;99.90;;;;;;5119381;28;20101;-70
2023/01/21 06:06:36;;;;;;;64.13;26.63;;;2.60;99.90;;;;;;5118245;28;20043;-70
2023/01/21 06:09:02;;;;;;;55.78;26.10;;;2.60;99.90;;;;;;5119604;27;20047;-70
2023/01/21 06:11:28;;;;;;;51.45;26.13;;;2.60;99.90;;;;;;5119226;28;20321;-71
2023/01/21 06:13:53;;;;;;;53.78;26.45;;;2.60;99.90;;;;;;5118528;28;20040;-71
2023/01/21 06:16:19;;;;;;;65.32;27.75;;;2.50;99.90;;;;;;5119395;28;20040;-71
2023/01/21 06:18:45;;;;;;;59.85;27.17;;;2.50;99.90;;;;;;5119428;27;20031;-71
2023/01/21 06:21:10;;;;;;;48.35;24.40;;;2.50;99.90;;;;;;5119040;28;20078;-71
2023/01/21 06:23:36;;;;;;;52.90;24.80;;;2.50;99.90;;;;;;5117983;28;20035;-71
2023/01/21 06:26:02;;;;;;;54.03;26.08;;;2.50;99.90;;;;;;5119224;28;20040;-70
2023/01/21 06:28:28;;;;;;;54.08;24.33;;;2.40;99.90;;;;;;5118780;27;20433;-70
2023/01/21 06:30:54;;;;;;;61.17;26.73;;;2.30;99.90;;;;;;5118981;28;20079;-71
2023/01/21 06:33:20;;;;;;;57.65;25.83;;;2.30;99.90;;;;;;5119115;28;20028;-70
2023/01/21 06:35:46;;;;;;;73.30;28.45;;;2.30;99.90;;;;;;5118824;28;20039;-70
2023/01/21 06:38:12;;;;;;;62.17;28.35;;;2.40;99.90;;;;;;5119046;28;20126;-71
2023/01/21 06:40:37;;;;;;;55.53;26.92;;;2.40;99.90;;;;;;5118984;28;20043;-70
2023/01/21 06:43:03;;;;;;;58.92;27.15;;;2.30;99.90;;;;;;5118606;28;20132;-70
2023/01/21 06:45:29;;;;;;;57.47;27.70;;;2.30;99.90;;;;;;5117429;28;20039;-70
2023/01/21 06:47:54;;;;;;;56.33;27.48;;;2.40;99.90;;;;;;5118847;28;20039;-70
2023/01/21 06:50:20;;;;;;;62.28;28.70;;;2.40;99.90;;;;;;5118423;28;20206;-71
2023/01/21 06:52:47;;;;;;;55.30;25.20;;;2.40;99.90;;;;;;5118407;28;20109;-71
2023/01/21 06:55:14;;;;;;;59.75;27.33;;;2.40;99.90;;;;;;5117928;28;20104;-70
2023/01/21 06:57:39;;;;;;;58.75;26.88;;;2.40;99.90;;;;;;5118167;28;20039;-70
2023/01/21 07:00:07;;;;;;;55.35;25.45;;;2.50;99.90;;;;;;5118572;28;20043;-71
2023/01/21 07:02:33;;;;;;;65.90;29.10;;;2.30;99.90;;;;;;5118740;28;20040;-70
2023/01/21 07:04:58;;;;;;;64.30;28.70;;;2.40;99.90;;;;;;5118184;28;20043;-70
2023/01/21 07:07:24;;;;;;;70.93;30.48;;;2.30;99.90;;;;;;5118145;28;20117;-70
2023/01/21 07:09:50;;;;;;;76.13;31.73;;;2.30;99.90;;;;;;5118100;28;20110;-70
2023/01/21 07:12:15;;;;;;;57.97;27.83;;;2.30;99.90;;;;;;5118026;28;20035;-70
2023/01/21 07:14:41;;;;;;;52.38;25.90;;;2.20;99.90;;;;;;5118337;28;20036;-70
2023/01/21 07:17:07;;;;;;;64.05;27.17;;;2.10;99.90;;;;;;5118228;28;20067;-70
2023/01/21 07:19:32;;;;;;;58.05;26.45;;;2.00;99.90;;;;;;5118209;28;20409;-70
2023/01/21 07:21:58;;;;;;;59.80;26.35;;;2.00;99.90;;;;;;5117493;28;20039;-70
2023/01/21 07:24:24;;;;;;;66.63;29.02;;;2.00;99.90;;;;;;5118082;28;20047;-70
2023/01/21 07:26:49;;;;;;;55.72;25.77;;;2.00;99.90;;;;;;5118015;28;20042;-70
2023/01/21 07:29:15;;;;;;;49.53;24.58;;;2.00;99.90;;;;;;5117697;28;20344;-70
2023/01/21 07:31:41;;;;;;;54.92;26.30;;;2.00;99.90;;;;;;5117982;28;20328;-70
2023/01/21 07:34:06;;;;;;;57.05;25.33;;;2.00;99.90;;;;;;5117887;28;20119;-71
2023/01/21 07:36:32;;;;;;;56.00;24.20;;;2.10;99.90;;;;;;5117896;28;20067;-71
2023/01/21 07:38:58;;;;;;;54.35;25.52;;;2.00;99.90;;;;;;5117554;28;20086;-70
2023/01/21 07:41:23;;;;;;;63.63;28.17;;;2.00;99.90;;;;;;5117767;28;20039;-71
2023/01/21 07:43:50;;;;;;;50.80;24.27;;;2.00;99.90;;;;;;5118295;28;20062;-71
2023/01/21 07:46:17;;;;;;;65.25;26.92;;;1.90;99.90;;;;;;5117727;28;20044;-70
2023/01/21 07:48:43;;;;;;;78.93;29.65;;;1.90;99.90;;;;;;5117634;28;20031;-70
2023/01/21 07:51:09;;;;;;;75.88;30.33;;;1.90;99.90;;;;;;5117318;28;20040;-70
2023/01/21 07:53:35;;;;;;;84.60;29.80;;;1.90;99.90;;;;;;5117797;28;20116;-71
2023/01/21 07:56:08;;;;;;;62.88;28.25;;;1.90;99.90;;;;;;5117277;28;20444;-71
2023/01/21 07:58:34;;;;;;;76.22;31.73;;;1.90;99.90;;;;;;5117545;28;20417;-70
2023/01/21 08:01:09;;;;;;;63.22;28.10;;;1.90;99.90;;;;;;5117515;28;20139;-70
2023/01/21 08:03:35;;;;;;;64.43;27.75;;;1.90;99.90;;;;;;5117508;28;20231;-70
2023/01/21 08:06:01;;;;;;;59.90;27.23;;;1.80;99.90;;;;;;5116122;28;20035;-70
2023/01/21 08:08:27;;;;;;;56.13;26.67;;;1.90;99.90;;;;;;5117258;28;20042;-70
2023/01/21 08:10:54;;;;;;;64.32;27.98;;;1.80;99.90;;;;;;5117396;28;20036;-69
2023/01/21 08:13:20;;;;;;;55.10;25.75;;;1.80;99.90;;;;;;5117479;28;20392;-70
2023/01/21 08:15:54;;;;;;;62.03;26.80;;;1.80;99.90;;;;;;5117340;28;20075;-69
2023/01/21 08:18:21;;;;;;;58.22;26.38;;;1.80;99.90;;;;;;5117097;28;20032;-70
2023/01/21 08:20:47;;;;;;;55.33;26.45;;;1.90;99.90;;;;;;5116942;28;20037;-70
2023/01/21 08:23:13;;;;;;;72.57;28.30;;;1.90;99.90;;;;;;5117272;28;20032;-69
2023/01/21 08:25:40;;;;;;;61.88;26.67;;;1.90;99.90;;;;;;5116862;28;20065;-70
2023/01/21 08:28:06;;;;;;;56.03;26.38;;;1.90;99.90;;;;;;5116994;28;20059;-72
2023/01/21 08:30:32;;;;;;;55.13;26.40;;;1.90;99.90;;;;;;5117124;28;20116;-69
2023/01/21 08:32:57;;;;;;;54.13;24.67;;;1.90;99.90;;;;;;5115840;28;20031;-68
2023/01/21 08:35:23;;;;;;;52.78;24.88;;;1.90;99.90;;;;;;5098845;28;20039;-73
2023/01/21 08:37:49;;;;;;;64.60;26.48;;;1.90;99.90;;;;;;5117043;28;20088;-70
2023/01/21 08:40:15;;;;;;;56.15;25.77;;;2.00;99.90;;;;;;5117009;28;20084;-68
2023/01/21 08:42:41;;;;;;;58.03;27.05;;;2.10;99.90;;;;;;5117047;28;20035;-69
2023/01/21 08:45:07;;;;;;;57.55;26.92;;;2.00;99.90;;;;;;5116982;28;20043;-70
2023/01/21 08:47:33;;;;;;;65.80;29.02;;;2.00;99.90;;;;;;5116918;28;20294;-69
2023/01/21 08:49:59;;;;;;;61.15;28.02;;;2.10;99.90;;;;;;5116930;28;20042;-66
2023/01/21 08:52:24;;;;;;;67.13;27.38;;;2.20;99.90;;;;;;5116525;28;20305;-69
2023/01/21 08:54:50;;;;;;;59.08;26.75;;;2.10;99.90;;;;;;5117417;28;20036;-70
2023/01/21 08:57:15;;;;;;;56.83;25.50;;;2.10;99.90;;;;;;5116895;28;20050;-69
2023/01/21 08:59:41;;;;;;;54.33;25.40;;;2.10;99.90;;;;;;5116922;28;20043;-69
2023/01/21 09:02:09;;;;;;;54.10;26.00;;;2.10;99.90;;;;;;5116523;28;20040;-69
2023/01/21 09:04:35;;;;;;;57.17;26.25;;;2.20;99.90;;;;;;5116575;28;20043;-69
2023/01/21 09:07:00;;;;;;;54.60;26.00;;;2.20;99.90;;;;;;5116793;28;20324;-69
2023/01/21 09:09:29;;;;;;;61.78;26.48;;;2.20;99.90;;;;;;5115481;28;20094;-69
2023/01/21 09:11:54;;;;;;;51.88;25.23;;;2.20;99.90;;;;;;5116417;28;20035;-69
2023/01/21 09:14:20;;;;;;;62.03;27.17;;;2.20;99.90;;;;;;5116763;28;20093;-69
2023/01/21 09:16:49;;;;;;;57.17;26.58;;;2.20;99.90;;;;;;5117112;28;20120;-69
2023/01/21 09:19:15;;;;;;;52.03;24.45;;;2.30;99.90;;;;;;5118110;28;20088;-69
2023/01/21 09:21:40;;;;;;;55.58;25.52;;;2.20;99.90;;;;;;5120066;28;20039;-69
2023/01/21 09:24:06;;;;;;;51.88;24.98;;;2.30;99.90;;;;;;5120375;28;20043;-69
2023/01/21 09:26:32;;;;;;;56.40;26.45;;;2.40;99.90;;;;;;5120275;28;20044;-68
2023/01/21 09:29:00;;;;;;;59.40;27.13;;;2.50;99.90;;;;;;5119923;27;20050;-69
2023/01/21 09:31:27;;;;;;;56.33;26.73;;;2.70;99.90;;;;;;5120773;28;20047;-69
2023/01/21 09:34:00;;;;;;;62.53;28.98;;;2.80;99.90;;;;;;5120172;28;20135;-69
2023/01/21 09:36:28;;;;;;;61.95;29.55;;;2.90;99.90;;;;;;5120187;28;20035;-69
2023/01/21 09:38:54;;;;;;;60.88;29.05;;;2.90;99.90;;;;;;5119841;28;20440;-69
2023/01/21 09:41:25;;;;;;;55.83;28.05;;;3.00;99.90;;;;;;5119887;28;20128;-69
2023/01/21 09:43:53;;;;;;;57.83;29.63;;;3.10;99.90;;;;;;5120153;28;20027;-70
2023/01/21 09:46:45;;;;;;;49.78;25.02;;;3.10;99.90;;;;;;5118697;28;20039;-72
2023/01/21 09:49:48;;;;;;;51.55;27.67;;;3.50;99.90;;;;;;5119267;28;20126;-75
2023/01/21 09:52:25;;;;;;;57.20;27.02;;;3.90;99.90;;;;;;5118821;28;20040;-75
2023/01/21 09:54:51;;;;;;;57.65;27.73;;;4.20;99.90;;;;;;5119209;28;20058;-76
2023/01/21 09:57:17;;;;;;;53.92;27.83;;;4.50;99.90;;;;;;5085105;28;20436;-76
2023/01/21 10:00:10;;;;;;;49.67;24.20;;;4.70;99.90;;;;;;5118739;28;20047;-76
2023/01/21 10:02:42;;;;;;;48.33;23.73;;;4.50;99.90;;;;;;5118861;28;20040;-76
2023/01/21 10:05:20;;;;;;;46.13;23.05;;;4.70;99.90;;;;;;5101531;28;20047;-76
2023/01/21 10:08:01;;;;;;;46.10;22.35;;;4.90;99.90;;;;;;5101511;28;20036;-74
2023/01/21 10:10:49;;;;;;;42.40;22.85;;;5.00;99.90;;;;;;5118310;28;20046;-74
2023/01/21 10:13:52;;;;;;;43.13;22.55;;;5.00;99.90;;;;;;5094516;28;20031;-69
2023/01/21 10:16:24;;;;;;;43.47;22.65;;;5.00;99.90;;;;;;5113618;28;20508;-68
2023/01/21 10:18:52;;;;;;;44.33;22.02;;;4.70;99.90;;;;;;5116620;28;20051;-69
2023/01/21 10:21:24;;;;;;;42.90;21.85;;;4.60;99.90;;;;;;5107185;28;20048;-69
2023/01/21 10:23:58;;;;;;;43.13;22.05;;;4.50;99.90;;;;;;5119289;28;20051;-67
2023/01/21 10:26:26;;;;;;;40.92;23.00;;;4.60;99.90;;;;;;5100792;28;20398;-72
2023/01/21 10:28:53;;;;;;;42.58;22.10;;;4.70;99.90;;;;;;5097160;28;20543;-74
2023/01/21 10:31:27;;;;;;;42.75;22.20;;;4.90;99.90;;;;;;5098537;28;20072;-74
2023/01/21 10:33:54;;;;;;;37.78;20.38;;;5.10;99.90;;;;;;5080417;28;20051;-74
2023/01/21 10:36:38;;;;;;;38.47;21.88;;;5.40;99.90;;;;;;5097784;28;20051;-74
2023/01/21 10:39:08;;;;;;;37.88;20.73;;;5.30;99.90;;;;;;5098368;28;20044;-68
2023/01/21 10:42:04;;;;;;;38.42;21.98;;;5.50;99.90;;;;;;5098268;28;20072;-68
2023/01/21 10:44:36;;;;;;;43.47;22.60;;;5.80;99.90;;;;;;5098161;28;20046;-72
2023/01/21 10:47:46;;;;;;;44.92;24.85;;;6.10;99.90;;;;;;5116129;28;20306;-68
2023/01/21 10:50:45;;;;;;;42.40;23.50;;;6.20;99.90;;;;;;5113585;28;20031;-70
2023/01/21 10:53:37;;;;;;;41.70;23.08;;;6.10;99.90;;;;;;5118753;28;20046;-71
2023/01/21 10:56:03;;;;;;;38.25;21.17;;;6.20;99.90;;;;;;5118783;28;20047;-75
2023/01/21 10:58:32;;;;;;;40.75;20.83;;;6.20;99.90;;;;;;5117612;28;20201;-71
2023/01/21 11:01:03;;;;;;;40.67;20.92;;;6.10;99.90;;;;;;5118311;28;20043;-71
2023/01/21 11:03:30;;;;;;;42.35;22.77;;;5.80;99.90;;;;;;5118581;28;20039;-71
2023/01/21 11:05:58;;;;;;;43.85;23.25;;;6.00;99.90;;;;;;5118442;28;20118;-69
2023/01/21 11:08:26;;;;;;;38.70;21.83;;;6.20;99.90;;;;;;5118780;28;20049;-75
2023/01/21 11:10:56;;;;;;;34.85;19.88;;;6.30;99.90;;;;;;5117388;28;20513;-69
2023/01/21 11:13:22;;;;;;;38.00;21.58;;;6.20;99.90;;;;;;5118101;28;20359;-70
2023/01/21 11:15:56;;;;;;;36.80;21.38;;;6.30;99.90;;;;;;5118349;28;20039;-70
2023/01/21 11:18:35;;;;;;;38.10;21.48;;;6.40;99.90;;;;;;5117027;28;20043;-70
2023/01/21 11:21:22;;;;;;;38.05;20.05;;;6.60;99.90;;;;;;5117611;28;20108;-70
2023/01/21 11:23:58;;;;;;;32.40;19.23;;;6.40;99.90;;;;;;5118259;28;20047;-70
2023/01/21 11:26:26;;;;;;;34.85;20.15;;;6.40;99.90;;;;;;5118073;28;20115;-70
2023/01/21 11:29:16;;;;;;;33.90;18.80;;;6.50;99.90;;;;;;5118051;28;20047;-69
2023/01/21 11:32:01;;;;;;;33.67;18.75;;;6.40;99.90;;;;;;5117707;28;20555;-70
2023/01/21 11:34:27;;;;;;;32.20;17.48;;;6.40;99.90;;;;;;5118001;28;20097;-70
2023/01/21 11:36:53;;;;;;;29.38;17.67;;;6.60;99.90;;;;;;5117920;27;20089;-70
2023/01/21 11:39:23;;;;;;;25.45;15.25;;;6.70;99.90;;;;;;5117906;28;20421;-68
2023/01/21 11:42:15;;;;;;;27.42;15.20;;;6.80;99.90;;;;;;5117400;28;20051;-76
2023/01/21 11:45:25;;;;;;;22.55;13.88;;;7.10;99.90;;;;;;5112305;28;20051;-70
2023/01/21 11:47:51;;;;;;;22.83;13.45;;;7.60;99.90;;;;;;5117780;28;20039;-69
2023/01/21 11:50:42;;;;;;;24.30;13.27;;;7.80;99.90;;;;;;5117372;28;20447;-70
2023/01/21 11:53:11;;;;;;;23.08;12.25;;;8.20;99.90;;;;;;5117338;28;20322;-69
2023/01/21 11:55:55;;;;;;;20.60;11.70;;;8.40;99.30;;;;;;5109108;28;20467;-70
2023/01/21 11:58:31;;;;;;;20.05;10.93;;;8.60;99.50;;;;;;5098996;28;20039;-70
2023/01/21 12:01:16;;;;;;;20.15;11.65;;;8.90;98.60;;;;;;5109672;28;20111;-70
2023/01/21 12:03:48;;;;;;;18.07;10.57;;;9.30;98.70;;;;;;5097031;28;20046;-70
2023/01/21 12:06:20;;;;;;;20.05;10.82;;;9.60;98.20;;;;;;5095736;28;20539;-69
2023/01/21 12:08:50;;;;;;;21.33;11.02;;;9.80;97.70;;;;;;5096398;28;20044;-70
2023/01/21 12:11:21;;;;;;;17.70;9.88;;;9.80;97.90;;;;;;5096880;28;20043;-70
2023/01/21 12:14:16;;;;;;;17.15;10.32;;;9.40;98.00;;;;;;5096667;28;20031;-69
2023/01/21 12:16:53;;;;;;;17.33;10.25;;;9.50;97.60;;;;;;5097169;28;20437;-70
2023/01/21 12:19:30;;;;;;;18.77;10.32;;;9.90;97.60;;;;;;5096591;28;20044;-70
2023/01/21 12:22:29;;;;;;;14.73;8.68;;;10.30;96.70;;;;;;5095193;28;20093;-70
2023/01/21 12:25:16;;;;;;;15.02;8.88;;;10.70;96.70;;;;;;5106622;28;20039;-70
2023/01/21 12:27:53;;;;;;;14.77;8.88;;;10.70;96.30;;;;;;5116915;28;20112;-70
2023/01/21 12:30:25;;;;;;;14.75;8.38;;;10.30;96.00;;;;;;5096651;28;20067;-70
2023/01/21 12:33:00;;;;;;;15.45;8.93;;;10.30;96.60;;;;;;5096593;28;20036;-74
2023/01/21 12:35:34;;;;;;;16.15;8.48;;;10.70;96.70;;;;;;5094508;28;20040;-71
2023/01/21 12:38:05;;;;;;;14.23;8.38;;;10.70;95.70;;;;;;5094583;28;20345;-70
2023/01/21 12:40:44;;;;;;;14.07;8.38;;;10.70;96.30;;;;;;5097034;28;20044;-69
2023/01/21 12:43:19;;;;;;;10.93;6.90;;;10.40;96.20;;;;;;5096815;28;20302;-69
2023/01/21 12:45:52;;;;;;;9.07;5.72;;;10.70;95.60;;;;;;5096718;28;20448;-69
2023/01/21 12:48:30;;;;;;;10.43;6.18;;;11.00;95.40;;;;;;5096742;28;20068;-69
2023/01/21 12:51:02;;;;;;;10.02;5.55;;;11.40;95.10;;;;;;5096308;28;20036;-70
2023/01/21 12:53:44;;;;;;;9.35;5.75;;;11.90;94.80;;;;;;5096888;28;20329;-71
2023/01/21 12:56:29;;;;;;;10.77;5.55;;;12.10;94.70;;;;;;5099389;28;20047;-70
2023/01/21 12:59:07;;;;;;;11.93;5.63;;;12.60;94.80;;;;;;5100654;28;20054;-71
2023/01/21 13:01:38;;;;;;;9.32;5.57;;;12.90;94.20;;;;;;5100907;28;20451;-68